Bryan, TX (77801)

3:10 AM CST on December 20, 2014 (GMT -0600)
Oak Knoll | Change Station
CLOSE
Current Station
Personal Weather Station
Location: Bryan, TX
Elevation: 344 ft
Nearby Weather Stations

Elev 344 ft 30.66 °N, 96.36 °W | Updated 9 minutes ago

Overcast
Overcast
48.3 °F
Feels Like 48 °F
N
2.0
Wind Variable Wind from North
Gusts 6.0 mph

Today
High -- | Low -- °F
--% Chance of Precip.
Yesterday
High -- | Low -- °F
Precip. -- in
7:18 AM 5:28 PM
Waning Crescent, 4% visible
Pressure 30.17 in
Visibility 10.0 miles
Clouds Few 900 ft
Overcast 1600 ft
Windchill 48 °F
Dew Point 47 °F
Humidity 95%
Rainfall 0.00 in
Snow Depth Not available.
UV 0 out of 12
Pollen .80 out of 12
Air Quality Not available.
Flu Activity Not available.
METAR KCLL 200853Z AUTO 01006KT 10SM FEW009 OVC016 09/08 A3017 RMK AO2 SLP215 T00940078 56003

More Conditions Fewer Conditions

Pressure 30.17 in
Visibility 10.0 miles
Clouds Few 900 ft
Overcast 1600 ft
Windchill 48 °F
Dew Point 47 °F
Humidity 95%
Rainfall 0.00 in
Snow Depth Not available.
UV 0 out of 12
Pollen .80 out of 12
Air Quality Not available.
Flu Activity Not available.
METAR KCLL 200853Z AUTO 01006KT 10SM FEW009 OVC016 09/08 A3017 RMK AO2 SLP215 T00940078 56003

More Conditions Fewer Conditions

10-Day Weather Forecast

Almanac

Astronomy

Dec. 20, 2014 Rise Set
Actual Time
Civil Twilight
Nautical Twilight
Astronomical Twilight
Moon
Length of Visible Light
Length of Day
Tomorrow will be .
, % of the Moon is Illuminated

Today's Extremes

State Highs State Lows

Community

WunderPhotos

Upload Photos

1,779,146 photos uploaded!

WunderBlogs® & News

Nearby

Air Quality

  Air Quality AQ Index Pollutant
Not available.

Snow Depth

Station Depth Elevation

Earthquake Activity

City Distance Mag. Time & Date
Minimum magnitude displayed is 2.5.

Coastal Water Temperatures

Place Temperature

Nearby Weather Stations